sensor_id;sensor_type;location;lat;lon;timestamp;pressure;altitude;pressure_sealevel;temperature;humidity
54512;BME280;40419;47.438;19.026;2022-10-22T00:01:08;99934.06;;;10.04;76.30
54512;BME280;40419;47.438;19.026;2022-10-22T00:03:41;99934.66;;;9.99;75.95
54512;BME280;40419;47.438;19.026;2022-10-22T00:06:09;99935.81;;;9.83;77.66
54512;BME280;40419;47.438;19.026;2022-10-22T00:08:37;99927.72;;;9.90;76.30
54512;BME280;40419;47.438;19.026;2022-10-22T00:11:15;99931.50;;;9.89;77.05
54512;BME280;40419;47.438;19.026;2022-10-22T00:13:44;99934.00;;;9.90;77.87
54512;BME280;40419;47.438;19.026;2022-10-22T00:16:11;99931.69;;;9.87;78.63
54512;BME280;40419;47.438;19.026;2022-10-22T00:18:37;99924.59;;;9.86;77.84
54512;BME280;40419;47.438;19.026;2022-10-22T00:21:04;99926.91;;;9.89;77.91
54512;BME280;40419;47.438;19.026;2022-10-22T00:23:32;99926.94;;;9.96;78.58
54512;BME280;40419;47.438;19.026;2022-10-22T00:25:58;99931.50;;;9.89;77.11
54512;BME280;40419;47.438;19.026;2022-10-22T00:28:23;99935.84;;;9.90;76.90
54512;BME280;40419;47.438;19.026;2022-10-22T00:31:03;99931.09;;;9.92;76.82
54512;BME280;40419;47.438;19.026;2022-10-22T00:33:31;99921.94;;;9.93;77.28
54512;BME280;40419;47.438;19.026;2022-10-22T00:36:01;99922.81;;;10.00;77.42
54512;BME280;40419;47.438;19.026;2022-10-22T00:38:28;99914.09;;;10.05;77.04
54512;BME280;40419;47.438;19.026;2022-10-22T00:40:57;99917.00;;;10.03;76.71
54512;BME280;40419;47.438;19.026;2022-10-22T00:43:26;99922.03;;;10.06;76.26
54512;BME280;40419;47.438;19.026;2022-10-22T00:45:51;99919.78;;;10.10;76.75
54512;BME280;40419;47.438;19.026;2022-10-22T00:48:26;99906.69;;;10.14;75.95
54512;BME280;40419;47.438;19.026;2022-10-22T00:50:58;99898.34;;;10.08;76.47
54512;BME280;40419;47.438;19.026;2022-10-22T00:53:29;99897.25;;;10.03;76.67
54512;BME280;40419;47.438;19.026;2022-10-22T00:56:06;99900.84;;;10.10;76.70
54512;BME280;40419;47.438;19.026;2022-10-22T00:58:45;99913.59;;;10.23;75.33
54512;BME280;40419;47.438;19.026;2022-10-22T01:01:17;99915.47;;;10.22;75.61
54512;BME280;40419;47.438;19.026;2022-10-22T01:03:48;99910.81;;;10.09;76.80
54512;BME280;40419;47.438;19.026;2022-10-22T01:06:25;99911.50;;;10.18;76.27
54512;BME280;40419;47.438;19.026;2022-10-22T01:09:10;99908.69;;;10.05;77.38
54512;BME280;40419;47.438;19.026;2022-10-22T01:27:38;99910.81;;;10.09;77.70
54512;BME280;40419;47.438;19.026;2022-10-22T01:30:13;99902.97;;;9.86;78.10
54512;BME280;40419;47.438;19.026;2022-10-22T01:32:48;99900.97;;;10.02;77.20
54512;BME280;40419;47.438;19.026;2022-10-22T01:35:18;99903.75;;;10.08;76.86
54512;BME280;40419;47.438;19.026;2022-10-22T01:37:57;99911.09;;;9.93;78.58
54512;BME280;40419;47.438;19.026;2022-10-22T01:40:27;99918.63;;;9.98;77.66
54512;BME280;40419;47.438;19.026;2022-10-22T01:42:58;99906.69;;;10.14;76.46
54512;BME280;40419;47.438;19.026;2022-10-22T01:45:29;99914.09;;;10.05;77.92
54512;BME280;40419;47.438;19.026;2022-10-22T01:56:09;99891.47;;;9.84;79.98
54512;BME280;40419;47.438;19.026;2022-10-22T01:59:05;99890.75;;;9.69;81.34
54512;BME280;40419;47.438;19.026;2022-10-22T02:01:53;99888.91;;;9.69;81.14
54512;BME280;40419;47.438;19.026;2022-10-22T02:04:29;99894.97;;;9.78;80.94
54512;BME280;40419;47.438;19.026;2022-10-22T02:07:04;99902.91;;;9.80;79.80
54512;BME280;40419;47.438;19.026;2022-10-22T02:09:31;99895.63;;;9.80;80.58
54512;BME280;40419;47.438;19.026;2022-10-22T02:12:03;99890.16;;;9.73;81.45
54512;BME280;40419;47.438;19.026;2022-10-22T02:14:31;99888.91;;;9.69;82.21
54512;BME280;40419;47.438;19.026;2022-10-22T02:17:03;99883.50;;;9.69;80.63
54512;BME280;40419;47.438;19.026;2022-10-22T02:19:45;99870.72;;;9.85;77.56
54512;BME280;40419;47.438;19.026;2022-10-22T02:22:12;99882.22;;;9.93;79.00
54512;BME280;40419;47.438;19.026;2022-10-22T02:24:40;99877.34;;;9.82;80.98
54512;BME280;40419;47.438;19.026;2022-10-22T02:27:20;99889.34;;;9.73;80.93
54512;BME280;40419;47.438;19.026;2022-10-22T02:30:13;99894.72;;;9.66;81.75
54512;BME280;40419;47.438;19.026;2022-10-22T02:32:45;99888.66;;;9.64;81.92
54512;BME280;40419;47.438;19.026;2022-10-22T02:35:16;99890.13;;;9.67;82.42
54512;BME280;40419;47.438;19.026;2022-10-22T02:37:44;99883.50;;;9.69;81.40
54512;BME280;40419;47.438;19.026;2022-10-22T02:40:12;99869.31;;;9.67;81.22
54512;BME280;40419;47.438;19.026;2022-10-22T02:42:41;99882.16;;;9.58;82.14
54512;BME280;40419;47.438;19.026;2022-10-22T02:45:07;99887.16;;;9.62;83.06
54512;BME280;40419;47.438;19.026;2022-10-22T02:47:35;99899.66;;;9.63;83.05
54512;BME280;40419;47.438;19.026;2022-10-22T02:50:03;99899.03;;;9.61;82.25
54512;BME280;40419;47.438;19.026;2022-10-22T02:52:31;99909.84;;;9.61;81.96
54512;BME280;40419;47.438;19.026;2022-10-22T02:54:57;99916.34;;;9.66;82.17
54512;BME280;40419;47.438;19.026;2022-10-22T02:57:22;99913.94;;;9.56;81.50
54512;BME280;40419;47.438;19.026;2022-10-22T02:59:48;99920.78;;;9.52;81.71
54512;BME280;40419;47.438;19.026;2022-10-22T03:02:16;99908.22;;;9.45;82.71
54512;BME280;40419;47.438;19.026;2022-10-22T03:04:44;99906.69;;;9.35;84.16
54512;BME280;40419;47.438;19.026;2022-10-22T03:07:12;99903.56;;;9.32;84.07
54512;BME280;40419;47.438;19.026;2022-10-22T03:09:40;99902.03;;;9.22;84.45
54512;BME280;40419;47.438;19.026;2022-10-22T03:12:05;99910.94;;;9.23;84.67
54512;BME280;40419;47.438;19.026;2022-10-22T03:14:35;99911.53;;;9.18;85.21
54512;BME280;40419;47.438;19.026;2022-10-22T03:17:00;99901.13;;;9.15;85.22
54512;BME280;40419;47.438;19.026;2022-10-22T03:19:26;99883.03;;;9.16;85.40
54512;BME280;40419;47.438;19.026;2022-10-22T03:21:56;99896.34;;;9.17;85.16
54512;BME280;40419;47.438;19.026;2022-10-22T03:24:34;99893.25;;;9.20;85.90
54512;BME280;40419;47.438;19.026;2022-10-22T03:27:03;99883.03;;;9.16;86.31
54512;BME280;40419;47.438;19.026;2022-10-22T03:29:33;99877.03;;;9.20;84.09
54512;BME280;40419;47.438;19.026;2022-10-22T03:32:00;99875.19;;;9.21;85.22
54512;BME280;40419;47.438;19.026;2022-10-22T03:34:26;99876.94;;;9.29;84.58
54512;BME280;40419;47.438;19.026;2022-10-22T03:36:58;99879.34;;;9.23;85.15
54512;BME280;40419;47.438;19.026;2022-10-22T03:39:29;99873.50;;;9.20;85.68
54512;BME280;40419;47.438;19.026;2022-10-22T03:41:56;99857.75;;;9.23;85.00
54512;BME280;40419;47.438;19.026;2022-10-22T03:44:26;99860.44;;;9.23;85.55
54512;BME280;40419;47.438;19.026;2022-10-22T03:46:55;99873.97;;;9.23;86.72
54512;BME280;40419;47.438;19.026;2022-10-22T03:49:24;99871.00;;;9.18;86.62
54512;BME280;40419;47.438;19.026;2022-10-22T03:51:50;99868.13;;;9.20;86.49
54512;BME280;40419;47.438;19.026;2022-10-22T03:54:20;99866.13;;;9.29;85.64
54512;BME280;40419;47.438;19.026;2022-10-22T03:56:48;99859.03;;;9.28;86.07
54512;BME280;40419;47.438;19.026;2022-10-22T03:59:13;99852.16;;;9.25;85.57
54512;BME280;40419;47.438;19.026;2022-10-22T04:01:46;99851.31;;;9.25;86.53
54512;BME280;40419;47.438;19.026;2022-10-22T04:04:19;99859.03;;;9.28;87.14
54512;BME280;40419;47.438;19.026;2022-10-22T04:06:46;99873.56;;;9.27;86.48
54512;BME280;40419;47.438;19.026;2022-10-22T04:09:12;99873.97;;;9.23;87.72
54512;BME280;40419;47.438;19.026;2022-10-22T04:11:37;99880.53;;;9.14;88.40
54512;BME280;40419;47.438;19.026;2022-10-22T04:14:03;99874.00;;;9.09;88.92
54512;BME280;40419;47.438;19.026;2022-10-22T04:16:28;99878.59;;;9.08;89.26
54512;BME280;40419;47.438;19.026;2022-10-22T04:18:59;99879.63;;;9.07;89.44
54512;BME280;40419;47.438;19.026;2022-10-22T04:21:27;99873.97;;;9.02;90.16
54512;BME280;40419;47.438;19.026;2022-10-22T04:23:56;99880.84;;;9.04;90.41
54512;BME280;40419;47.438;19.026;2022-10-22T04:26:24;99883.09;;;9.01;90.70
54512;BME280;40419;47.438;19.026;2022-10-22T04:28:52;99879.75;;;8.99;90.16
54512;BME280;40419;47.438;19.026;2022-10-22T04:31:20;99881.44;;;9.00;90.75
54512;BME280;40419;47.438;19.026;2022-10-22T04:33:46;99867.47;;;8.96;90.39
54512;BME280;40419;47.438;19.026;2022-10-22T04:36:15;99863.56;;;8.99;89.47
54512;BME280;40419;47.438;19.026;2022-10-22T04:38:44;99864.66;;;9.04;89.19
54512;BME280;40419;47.438;19.026;2022-10-22T04:41:17;99866.25;;;8.99;90.50
54512;BME280;40419;47.438;19.026;2022-10-22T04:43:44;99856.41;;;8.91;90.70
54512;BME280;40419;47.438;19.026;2022-10-22T04:46:13;99866.16;;;8.92;90.27
54512;BME280;40419;47.438;19.026;2022-10-22T04:48:42;99861.81;;;8.91;89.85
54512;BME280;40419;47.438;19.026;2022-10-22T04:51:15;99858.53;;;8.74;89.78
54512;BME280;40419;47.438;19.026;2022-10-22T04:53:42;99870.97;;;8.75;91.38
54512;BME280;40419;47.438;19.026;2022-10-22T04:56:22;99858.72;;;8.73;91.21
54512;BME280;40419;47.438;19.026;2022-10-22T04:58:49;99860.31;;;8.89;89.78
54512;BME280;40419;47.438;19.026;2022-10-22T05:01:19;99856.84;;;8.95;89.35
54512;BME280;40419;47.438;19.026;2022-10-22T05:03:48;99859.50;;;8.88;90.25
54512;BME280;40419;47.438;19.026;2022-10-22T05:06:14;99870.59;;;8.78;90.60
54512;BME280;40419;47.438;19.026;2022-10-22T05:08:42;99874.59;;;8.82;91.05
54512;BME280;40419;47.438;19.026;2022-10-22T05:11:13;99862.13;;;8.81;90.82
54512;BME280;40419;47.438;19.026;2022-10-22T05:13:44;99861.88;;;8.76;91.84
54512;BME280;40419;47.438;19.026;2022-10-22T05:16:10;99867.66;;;8.73;91.94
54512;BME280;40419;47.438;19.026;2022-10-22T05:18:42;99868.03;;;8.70;92.20
54512;BME280;40419;47.438;19.026;2022-10-22T05:21:13;99865.84;;;8.80;91.70
54512;BME280;40419;47.438;19.026;2022-10-22T05:23:43;99866.16;;;8.71;92.58
54512;BME280;40419;47.438;19.026;2022-10-22T05:26:10;99875.56;;;8.75;91.90
54512;BME280;40419;47.438;19.026;2022-10-22T05:28:41;99868.47;;;8.74;91.46
54512;BME280;40419;47.438;19.026;2022-10-22T05:31:12;99872.66;;;8.76;91.23
54512;BME280;40419;47.438;19.026;2022-10-22T05:33:41;99873.28;;;8.78;91.22
54512;BME280;40419;47.438;19.026;2022-10-22T05:36:09;99880.25;;;8.87;89.81
54512;BME280;40419;47.438;19.026;2022-10-22T05:38:38;99877.16;;;8.91;90.74
54512;BME280;40419;47.438;19.026;2022-10-22T05:41:06;99864.94;;;8.95;90.62
54512;BME280;40419;47.438;19.026;2022-10-22T05:43:37;99858.06;;;8.92;90.46
54512;BME280;40419;47.438;19.026;2022-10-22T05:46:19;99862.78;;;8.83;89.40
54512;BME280;40419;47.438;19.026;2022-10-22T05:48:51;99869.72;;;8.93;90.83
54512;BME280;40419;47.438;19.026;2022-10-22T05:51:19;99865.44;;;8.98;90.47
54512;BME280;40419;47.438;19.026;2022-10-22T05:53:51;99877.44;;;8.96;89.52
54512;BME280;40419;47.438;19.026;2022-10-22T05:56:17;99891.91;;;9.10;90.26
54512;BME280;40419;47.438;19.026;2022-10-22T05:58:45;99889.78;;;9.05;89.34
54512;BME280;40419;47.438;19.026;2022-10-22T06:01:25;99882.50;;;9.05;89.83
54512;BME280;40419;47.438;19.026;2022-10-22T06:03:56;99882.31;;;9.07;89.35
54512;BME280;40419;47.438;19.026;2022-10-22T06:06:34;99891.28;;;9.08;89.96
54512;BME280;40419;47.438;19.026;2022-10-22T06:11:30;99908.31;;;9.08;90.53
54512;BME280;40419;47.438;19.026;2022-10-22T06:13:57;99917.94;;;9.17;91.22
54512;BME280;40419;47.438;19.026;2022-10-22T06:16:27;99904.63;;;9.16;90.60
54512;BME280;40419;47.438;19.026;2022-10-22T06:18:52;99912.31;;;9.12;91.03
54512;BME280;40419;47.438;19.026;2022-10-22T06:21:18;99916.47;;;9.15;91.28
54512;BME280;40419;47.438;19.026;2022-10-22T06:23:46;99906.00;;;9.27;91.42
54512;BME280;40419;47.438;19.026;2022-10-22T06:26:11;99902.25;;;9.28;91.73
54512;BME280;40419;47.438;19.026;2022-10-22T06:28:37;99894.34;;;9.26;90.42
54512;BME280;40419;47.438;19.026;2022-10-22T06:31:04;99902.97;;;9.36;89.87
54512;BME280;40419;47.438;19.026;2022-10-22T06:33:33;99914.03;;;9.42;90.08
54512;BME280;40419;47.438;19.026;2022-10-22T06:36:16;99906.97;;;9.40;89.77
54512;BME280;40419;47.438;19.026;2022-10-22T06:38:42;99912.63;;;9.46;91.96
54512;BME280;40419;47.438;19.026;2022-10-22T06:41:13;99903.78;;;9.58;88.46
54512;BME280;40419;47.438;19.026;2022-10-22T06:43:43;99920.38;;;9.55;86.80
54512;BME280;40419;47.438;19.026;2022-10-22T06:46:14;99938.50;;;9.83;84.76
54512;BME280;40419;47.438;19.026;2022-10-22T06:48:40;99936.19;;;9.80;85.68
54512;BME280;40419;47.438;19.026;2022-10-22T06:51:08;99931.94;;;9.99;85.51
54512;BME280;40419;47.438;19.026;2022-10-22T06:53:42;99925.38;;;9.80;85.77
54512;BME280;40419;47.438;19.026;2022-10-22T06:56:10;99922.00;;;10.00;85.04
54512;BME280;40419;47.438;19.026;2022-10-22T06:58:42;99931.41;;;10.10;86.49
54512;BME280;40419;47.438;19.026;2022-10-22T07:01:14;99924.31;;;10.03;86.03
54512;BME280;40419;47.438;19.026;2022-10-22T07:03:44;99914.72;;;10.07;85.49
54512;BME280;40419;47.438;19.026;2022-10-22T07:06:13;99925.09;;;10.32;83.92
54512;BME280;40419;47.438;19.026;2022-10-22T07:08:41;99932.41;;;10.31;84.58
54512;BME280;40419;47.438;19.026;2022-10-22T07:13:43;99920.63;;;10.45;84.81
54512;BME280;40419;47.438;19.026;2022-10-22T07:16:11;99923.41;;;10.31;83.20
54512;BME280;40419;47.438;19.026;2022-10-22T07:18:37;99919.22;;;10.28;84.51
54512;BME280;40419;47.438;19.026;2022-10-22T07:21:06;99913.31;;;10.46;82.96
54512;BME280;40419;47.438;19.026;2022-10-22T07:23:34;99921.50;;;10.24;83.84
54512;BME280;40419;47.438;19.026;2022-10-22T07:26:00;99916.69;;;10.20;82.70
54512;BME280;40419;47.438;19.026;2022-10-22T07:28:28;99919.13;;;10.08;83.49
54512;BME280;40419;47.438;19.026;2022-10-22T07:31:00;99914.56;;;10.08;81.45
54512;BME280;40419;47.438;19.026;2022-10-22T07:33:28;99912.91;;;10.14;81.19
54512;BME280;40419;47.438;19.026;2022-10-22T07:36:00;99914.59;;;10.15;82.39
54512;BME280;40419;47.438;19.026;2022-10-22T07:38:31;99920.03;;;10.22;83.13
54512;BME280;40419;47.438;19.026;2022-10-22T07:40:58;99918.28;;;10.36;83.84
54512;BME280;40419;47.438;19.026;2022-10-22T07:43:31;99909.38;;;10.42;82.63
54512;BME280;40419;47.438;19.026;2022-10-22T07:45:58;99905.88;;;10.55;81.55
54512;BME280;40419;47.438;19.026;2022-10-22T07:48:27;99909.84;;;10.59;81.14
54512;BME280;40419;47.438;19.026;2022-10-22T07:50:58;99912.81;;;10.71;79.98
54512;BME280;40419;47.438;19.026;2022-10-22T07:53:25;99920.28;;;10.62;79.89
54512;BME280;40419;47.438;19.026;2022-10-22T07:55:51;99919.69;;;10.67;78.56
54512;BME280;40419;47.438;19.026;2022-10-22T07:58:20;99926.38;;;10.77;78.74
54512;BME280;40419;47.438;19.026;2022-10-22T08:00:46;99927.22;;;10.78;79.15
54512;BME280;40419;47.438;19.026;2022-10-22T08:03:13;99925.56;;;10.84;78.60
54512;BME280;40419;47.438;19.026;2022-10-22T08:05:41;99923.72;;;10.97;77.60
54512;BME280;40419;47.438;19.026;2022-10-22T08:08:08;99927.94;;;11.13;76.87
54512;BME280;40419;47.438;19.026;2022-10-22T08:10:36;99917.97;;;11.21;75.90
54512;BME280;40419;47.438;19.026;2022-10-22T08:13:01;99925.03;;;11.15;75.38
54512;BME280;40419;47.438;19.026;2022-10-22T08:15:29;99923.81;;;11.17;74.25
54512;BME280;40419;47.438;19.026;2022-10-22T08:17:57;99916.72;;;11.30;74.20
54512;BME280;40419;47.438;19.026;2022-10-22T08:20:25;99918.00;;;11.54;74.75
54512;BME280;40419;47.438;19.026;2022-10-22T08:22:53;99916.75;;;11.77;74.19
54512;BME280;40419;47.438;19.026;2022-10-22T08:25:21;99920.50;;;11.76;72.20
54512;BME280;40419;47.438;19.026;2022-10-22T08:27:48;99921.13;;;12.04;73.09
54512;BME280;40419;47.438;19.026;2022-10-22T08:30:14;99925.53;;;12.05;72.56
54512;BME280;40419;47.438;19.026;2022-10-22T08:32:40;99911.34;;;12.03;74.17
54512;BME280;40419;47.438;19.026;2022-10-22T08:35:09;99912.53;;;12.21;71.82
54512;BME280;40419;47.438;19.026;2022-10-22T08:37:34;99911.06;;;12.25;72.66
54512;BME280;40419;47.438;19.026;2022-10-22T08:40:00;99912.97;;;12.18;72.93
54512;BME280;40419;47.438;19.026;2022-10-22T08:50:40;99931.72;;;12.39;73.07
54512;BME280;40419;47.438;19.026;2022-10-22T08:53:13;99933.22;;;12.22;73.08
54512;BME280;40419;47.438;19.026;2022-10-22T08:55:42;99917.16;;;12.14;72.91
54512;BME280;40419;47.438;19.026;2022-10-22T09:01:16;99929.28;;;12.04;74.75
54512;BME280;40419;47.438;19.026;2022-10-22T09:06:29;99922.19;;;12.17;76.78
54512;BME280;40419;47.438;19.026;2022-10-22T09:08:59;99917.34;;;12.19;79.84
54512;BME280;40419;47.438;19.026;2022-10-22T09:11:35;99925.06;;;12.22;79.08
54512;BME280;40419;47.438;19.026;2022-10-22T09:14:02;99927.78;;;12.22;76.03
54512;BME280;40419;47.438;19.026;2022-10-22T09:26:55;99909.19;;;12.32;73.30
54512;BME280;40419;47.438;19.026;2022-10-22T09:29:31;99914.75;;;12.51;71.99
54512;BME280;40419;47.438;19.026;2022-10-22T09:31:57;99926.44;;;12.51;73.09
54512;BME280;40419;47.438;19.026;2022-10-22T09:34:22;99923.94;;;12.50;75.35
54512;BME280;40419;47.438;19.026;2022-10-22T09:36:57;99934.59;;;12.51;75.04
54512;BME280;40419;47.438;19.026;2022-10-22T09:39:27;99931.25;;;12.56;73.55
54512;BME280;40419;47.438;19.026;2022-10-22T09:41:58;99935.88;;;12.49;76.08
54512;BME280;40419;47.438;19.026;2022-10-22T09:44:24;99936.91;;;12.48;74.90
54512;BME280;40419;47.438;19.026;2022-10-22T09:46:53;99938.16;;;12.45;75.32
54512;BME280;40419;47.438;19.026;2022-10-22T09:49:22;99932.72;;;12.52;77.04
54512;BME280;40419;47.438;19.026;2022-10-22T09:59:25;99925.97;;;12.74;78.97
54512;BME280;40419;47.438;19.026;2022-10-22T10:02:28;99928.25;;;12.77;77.01
54512;BME280;40419;47.438;19.026;2022-10-22T10:04:52;99931.13;;;12.83;77.06
54512;BME280;40419;47.438;19.026;2022-10-22T10:07:29;99918.59;;;12.82;74.67
54512;BME280;40419;47.438;19.026;2022-10-22T10:09:58;99923.63;;;12.85;75.71
54512;BME280;40419;47.438;19.026;2022-10-22T10:15:23;99916.63;;;13.02;75.72
54512;BME280;40419;47.438;19.026;2022-10-22T10:23:31;99910.22;;;13.22;75.63
54512;BME280;40419;47.438;19.026;2022-10-22T10:26:34;99916.53;;;13.16;73.10
54512;BME280;40419;47.438;19.026;2022-10-22T10:32:09;99908.09;;;12.92;74.25
54512;BME280;40419;47.438;19.026;2022-10-22T10:37:26;99904.06;;;13.08;73.91
54512;BME280;40419;47.438;19.026;2022-10-22T10:40:04;99900.41;;;13.21;74.51
54512;BME280;40419;47.438;19.026;2022-10-22T10:42:54;99894.97;;;13.21;73.61
54512;BME280;40419;47.438;19.026;2022-10-22T10:48:19;99909.13;;;13.29;73.50
54512;BME280;40419;47.438;19.026;2022-10-22T10:56:34;99924.88;;;13.21;76.17
54512;BME280;40419;47.438;19.026;2022-10-22T11:07:41;99920.22;;;13.35;75.14
54512;BME280;40419;47.438;19.026;2022-10-22T11:10:33;99920.84;;;13.37;76.90
54512;BME280;40419;47.438;19.026;2022-10-22T11:15:59;99919.34;;;13.41;76.36
54512;BME280;40419;47.438;19.026;2022-10-22T11:18:36;99911.63;;;13.38;75.12
54512;BME280;40419;47.438;19.026;2022-10-22T11:21:09;99908.69;;;13.39;76.95
54512;BME280;40419;47.438;19.026;2022-10-22T11:23:51;99909.28;;;13.41;78.40
54512;BME280;40419;47.438;19.026;2022-10-22T11:29:06;99891.50;;;13.45;79.62
54512;BME280;40419;47.438;19.026;2022-10-22T11:31:34;99894.28;;;13.64;76.26
54512;BME280;40419;47.438;19.026;2022-10-22T11:34:09;99876.22;;;13.70;75.87
54512;BME280;40419;47.438;19.026;2022-10-22T11:36:38;99882.25;;;13.72;75.99
54512;BME280;40419;47.438;19.026;2022-10-22T11:39:13;99875.44;;;13.88;75.75
54512;BME280;40419;47.438;19.026;2022-10-22T11:41:54;99882.22;;;13.78;75.35
54512;BME280;40419;47.438;19.026;2022-10-22T11:44:22;99888.88;;;13.82;74.80
54512;BME280;40419;47.438;19.026;2022-10-22T11:49:22;99878.75;;;13.90;76.38
54512;BME280;40419;47.438;19.026;2022-10-22T11:51:51;99872.50;;;13.89;77.56
54512;BME280;40419;47.438;19.026;2022-10-22T11:54:40;99871.41;;;13.90;75.20
54512;BME280;40419;47.438;19.026;2022-10-22T12:02:39;99856.84;;;14.03;75.47
54512;BME280;40419;47.438;19.026;2022-10-22T12:05:28;99862.88;;;14.05;75.51
54512;BME280;40419;47.438;19.026;2022-10-22T12:08:22;99870.00;;;13.88;79.69
54512;BME280;40419;47.438;19.026;2022-10-22T12:10:57;99867.59;;;13.98;76.27
54512;BME280;40419;47.438;19.026;2022-10-22T12:13:27;99864.56;;;13.88;77.38
54512;BME280;40419;47.438;19.026;2022-10-22T12:16:01;99859.47;;;13.91;75.50
54512;BME280;40419;47.438;19.026;2022-10-22T12:18:48;99852.00;;;13.87;77.20
54512;BME280;40419;47.438;19.026;2022-10-22T12:21:16;99863.31;;;13.83;81.03
54512;BME280;40419;47.438;19.026;2022-10-22T12:23:43;99862.78;;;13.75;80.66
54512;BME280;40419;47.438;19.026;2022-10-22T12:26:29;99852.34;;;13.72;80.38
54512;BME280;40419;47.438;19.026;2022-10-22T12:29:05;99846.31;;;13.70;80.75
54512;BME280;40419;47.438;19.026;2022-10-22T12:31:38;99853.69;;;13.62;81.63
54512;BME280;40419;47.438;19.026;2022-10-22T12:34:06;99843.91;;;13.55;83.11
54512;BME280;40419;47.438;19.026;2022-10-22T12:36:34;99848.13;;;13.51;83.33
54512;BME280;40419;47.438;19.026;2022-10-22T12:39:10;99845.84;;;13.47;86.16
54512;BME280;40419;47.438;19.026;2022-10-22T12:41:38;99838.59;;;13.41;84.44
54512;BME280;40419;47.438;19.026;2022-10-22T12:44:05;99846.59;;;13.36;86.65
54512;BME280;40419;47.438;19.026;2022-10-22T12:46:33;99850.59;;;13.27;88.60
54512;BME280;40419;47.438;19.026;2022-10-22T12:49:04;99860.84;;;13.25;88.75
54512;BME280;40419;47.438;19.026;2022-10-22T12:51:31;99859.03;;;13.19;88.02
54512;BME280;40419;47.438;19.026;2022-10-22T12:54:02;99867.41;;;13.17;88.04
54512;BME280;40419;47.438;19.026;2022-10-22T12:56:32;99854.63;;;13.18;89.55
54512;BME280;40419;47.438;19.026;2022-10-22T12:59:01;99857.13;;;13.19;89.83
54512;BME280;40419;47.438;19.026;2022-10-22T13:01:31;99855.69;;;13.17;89.76
54512;BME280;40419;47.438;19.026;2022-10-22T13:04:17;99859.25;;;13.17;91.37
54512;BME280;40419;47.438;19.026;2022-10-22T13:06:46;99859.47;;;13.16;90.84
54512;BME280;40419;47.438;19.026;2022-10-22T13:09:23;99861.34;;;13.15;92.05
54512;BME280;40419;47.438;19.026;2022-10-22T13:11:52;99858.41;;;13.17;91.67
54512;BME280;40419;47.438;19.026;2022-10-22T13:14:20;99865.50;;;13.18;90.96
54512;BME280;40419;47.438;19.026;2022-10-22T13:19:58;99853.97;;;13.22;89.56
54512;BME280;40419;47.438;19.026;2022-10-22T13:24:55;99861.53;;;13.20;91.17
54512;BME280;40419;47.438;19.026;2022-10-22T13:27:25;99859.81;;;13.26;91.00
54512;BME280;40419;47.438;19.026;2022-10-22T13:29:55;99853.31;;;13.27;91.23
54512;BME280;40419;47.438;19.026;2022-10-22T13:32:27;99855.56;;;13.37;91.28
54512;BME280;40419;47.438;19.026;2022-10-22T13:34:54;99845.47;;;13.44;90.97
54512;BME280;40419;47.438;19.026;2022-10-22T13:37:25;99851.53;;;13.46;91.61
54512;BME280;40419;47.438;19.026;2022-10-22T13:39:54;99850.84;;;13.51;90.66
54512;BME280;40419;47.438;19.026;2022-10-22T13:42:19;99856.28;;;13.51;91.65
54512;BME280;40419;47.438;19.026;2022-10-22T13:44:47;99853.78;;;13.49;92.21
54512;BME280;40419;47.438;19.026;2022-10-22T13:47:27;99862.13;;;13.54;91.52
54512;BME280;40419;47.438;19.026;2022-10-22T13:49:55;99857.13;;;13.51;91.81
54512;BME280;40419;47.438;19.026;2022-10-22T13:52:38;99861.69;;;13.57;91.44
54512;BME280;40419;47.438;19.026;2022-10-22T13:57:52;99867.41;;;13.49;91.78
54512;BME280;40419;47.438;19.026;2022-10-22T14:00:20;99864.00;;;13.54;91.84
54512;BME280;40419;47.438;19.026;2022-10-22T14:02:48;99864.22;;;13.52;91.26
54512;BME280;40419;47.438;19.026;2022-10-22T14:05:16;99874.06;;;13.53;91.81
54512;BME280;40419;47.438;19.026;2022-10-22T14:07:42;99879.88;;;13.57;90.89
54512;BME280;40419;47.438;19.026;2022-10-22T14:10:22;99863.28;;;13.65;92.01
54512;BME280;40419;47.438;19.026;2022-10-22T14:12:52;99864.78;;;13.61;92.40
54512;BME280;40419;47.438;19.026;2022-10-22T14:15:23;99877.50;;;13.67;93.65
54512;BME280;40419;47.438;19.026;2022-10-22T14:17:58;99878.72;;;13.71;92.14
54512;BME280;40419;47.438;19.026;2022-10-22T14:20:27;99883.38;;;13.64;92.60
54512;BME280;40419;47.438;19.026;2022-10-22T14:22:54;99876.44;;;13.68;91.58
54512;BME280;40419;47.438;19.026;2022-10-22T14:25:23;99875.06;;;13.59;93.03
54512;BME280;40419;47.438;19.026;2022-10-22T14:27:50;99878.22;;;13.56;91.58
54512;BME280;40419;47.438;19.026;2022-10-22T14:30:22;99862.78;;;13.50;92.85
54512;BME280;40419;47.438;19.026;2022-10-22T14:32:48;99848.56;;;13.47;93.47
54512;BME280;40419;47.438;19.026;2022-10-22T14:35:17;99863.22;;;13.46;93.04
54512;BME280;40419;47.438;19.026;2022-10-22T14:37:45;99867.63;;;13.47;91.71
54512;BME280;40419;47.438;19.026;2022-10-22T14:40:18;99870.56;;;13.46;92.65
54512;BME280;40419;47.438;19.026;2022-10-22T14:42:45;99860.91;;;13.50;92.91
54512;BME280;40419;47.438;19.026;2022-10-22T14:45:21;99876.06;;;13.39;93.30
54512;BME280;40419;47.438;19.026;2022-10-22T14:47:51;99873.94;;;13.41;93.35
54512;BME280;40419;47.438;19.026;2022-10-22T14:50:20;99864.38;;;13.32;94.67
54512;BME280;40419;47.438;19.026;2022-10-22T14:52:48;99864.81;;;13.29;94.12
54512;BME280;40419;47.438;19.026;2022-10-22T14:55:18;99869.19;;;13.30;94.04
54512;BME280;40419;47.438;19.026;2022-10-22T14:57:44;99875.06;;;13.27;94.13
54512;BME280;40419;47.438;19.026;2022-10-22T15:00:15;99880.69;;;13.32;93.47
54512;BME280;40419;47.438;19.026;2022-10-22T15:02:41;99878.84;;;13.26;94.59
54512;BME280;40419;47.438;19.026;2022-10-22T15:05:11;99880.72;;;13.25;93.98
54512;BME280;40419;47.438;19.026;2022-10-22T15:07:39;99873.41;;;13.26;93.88